Time;durP1;ratioP1;P1;durP2;ratioP2;P2;SDS_P1;SDS_P2;PMS_P1;PMS_P2;Temp;Humidity;BMP_temperature;BMP_pressure;BME280_temperature;BME280_humidity;BME280_pressure;Samples;Min_cycle;Max_cycle;Signal;HPM_P1;HPM_P2
2023/10/06 00:03:14;;;;;;;8.67;5.40;;;;;;;13.36;59.93;99848.06;7044188;28;20238;-88
2023/10/06 00:06:37;;;;;;;9.50;5.17;;;;;;;13.12;61.09;99859.34;7040256;28;20230;-87
2023/10/06 00:09:59;;;;;;;9.27;5.03;;;;;;;13.20;60.97;99850.22;7044089;28;20811;-87
2023/10/06 00:13:29;;;;;;;8.00;5.10;;;;;;;13.11;61.00;99829.75;7040975;28;20576;-88
2023/10/06 00:16:53;;;;;;;11.17;5.47;;;;;;;13.08;61.21;99844.50;7044194;28;20233;-88
2023/10/06 00:20:21;;;;;;;13.80;4.80;;;;;;;13.32;61.25;99856.78;7042290;28;20299;-88
2023/10/06 00:23:44;;;;;;;9.37;5.70;;;;;;;13.50;60.06;99849.81;7038800;28;20227;-87
2023/10/06 00:27:10;;;;;;;14.03;6.03;;;;;;;13.17;59.92;99859.56;7047129;28;20196;-88
2023/10/06 00:30:32;;;;;;;10.50;4.70;;;;;;;12.96;60.93;99864.19;7045599;28;20208;-89
2023/10/06 00:34:00;;;;;;;9.00;5.50;;;;;;;13.07;61.20;99856.38;7037167;28;20251;-87
2023/10/06 00:37:23;;;;;;;9.43;5.80;;;;;;;12.94;61.21;99852.69;7041092;28;20250;-87
2023/10/06 00:40:51;;;;;;;6.90;4.83;;;;;;;12.94;60.28;99845.41;7043444;28;20216;-88
2023/10/06 00:44:13;;;;;;;10.57;5.30;;;;;;;12.87;60.43;99855.31;7037331;28;20223;-88
2023/10/06 00:47:38;;;;;;;9.93;5.23;;;;;;;12.92;60.30;99847.47;7040200;28;20581;-88
2023/10/06 00:51:04;;;;;;;9.30;5.87;;;;;;;13.17;59.76;99848.75;7031433;28;20209;-87
2023/10/06 00:54:26;;;;;;;9.60;5.27;;;;;;;13.04;59.11;99826.16;7039022;28;20233;-87
2023/10/06 00:57:53;;;;;;;8.70;5.67;;;;;;;13.03;59.85;99843.41;7042194;28;20260;-86
2023/10/06 01:01:17;;;;;;;9.63;5.50;;;;;;;12.90;59.44;99830.59;7037757;28;20224;-88
2023/10/06 01:04:44;;;;;;;11.90;6.07;;;;;;;12.53;60.05;99833.56;7040006;28;20255;-87
2023/10/06 01:08:11;;;;;;;8.33;5.90;;;;;;;12.83;60.51;99834.25;7037792;28;20208;-87
2023/10/06 01:11:40;;;;;;;8.20;5.23;;;;;;;13.04;59.41;99837.81;7037655;28;20249;-87
2023/10/06 01:15:16;;;;;;;10.87;5.17;;;;;;;13.05;59.27;99825.13;7037513;28;20698;-87
2023/10/06 01:18:41;;;;;;;9.90;5.90;;;;;;;12.66;59.78;99832.84;7045525;28;20253;-90
2023/10/06 01:22:20;;;;;;;10.93;5.90;;;;;;;11.88;60.71;99722.00;7036539;28;20694;-87
2023/10/06 01:25:43;;;;;;;10.60;5.67;;;;;;;12.71;60.80;99830.41;7042039;28;20720;-88
2023/10/06 01:29:05;;;;;;;10.27;5.77;;;;;;;12.47;61.50;99828.09;7042537;28;20697;-86
2023/10/06 01:32:26;;;;;;;8.57;5.73;;;;;;;12.56;61.10;99835.06;7039682;28;20615;-88
2023/10/06 01:35:49;;;;;;;10.67;5.80;;;;;;;12.83;60.22;99832.41;7036654;28;20354;-88
2023/10/06 01:39:16;;;;;;;7.93;5.87;;;;;;;12.47;61.10;99815.41;7040956;28;20220;-88
2023/10/06 01:42:39;;;;;;;10.67;6.10;;;;;;;12.53;60.74;99821.91;7040910;28;20219;-88
2023/10/06 01:46:01;;;;;;;11.17;6.67;;;;;;;12.39;61.12;99825.50;7036370;28;20315;-87
2023/10/06 01:49:22;;;;;;;7.20;5.07;;;;;;;12.18;60.94;99820.91;7039205;27;20299;-88
2023/10/06 01:52:44;;;;;;;6.90;5.43;;;;;;;12.24;61.14;99773.31;7041242;28;20241;-88
2023/10/06 01:56:07;;;;;;;7.00;5.50;;;;;;;12.36;60.90;99821.31;7041256;28;20952;-88
2023/10/06 01:59:30;;;;;;;9.97;5.93;;;;;;;12.22;61.57;99818.66;7033319;28;20295;-88
2023/10/06 02:02:51;;;;;;;10.60;5.50;;;;;;;12.41;60.75;99809.91;7041044;28;20205;-87
2023/10/06 02:06:16;;;;;;;9.60;6.40;;;;;;;12.44;60.63;99826.59;7037305;28;20319;-89
2023/10/06 02:09:37;;;;;;;10.97;6.53;;;;;;;12.61;60.06;99819.06;7036599;28;20651;-87
2023/10/06 02:12:59;;;;;;;8.80;5.30;;;;;;;12.28;60.68;99774.63;7040465;28;20265;-89
2023/10/06 02:16:26;;;;;;;10.03;5.40;;;;;;;12.31;60.92;99812.94;7038288;28;20309;-88
2023/10/06 02:19:47;;;;;;;6.93;5.00;;;;;;;12.08;61.21;99782.53;7035530;28;20200;-89
2023/10/06 02:23:09;;;;;;;6.37;4.70;;;;;;;12.13;60.98;99815.22;7039173;28;20353;-88
2023/10/06 02:26:35;;;;;;;8.53;5.70;;;;;;;12.07;60.18;99788.97;7039876;28;20292;-90
2023/10/06 02:29:57;;;;;;;11.27;5.83;;;;;;;12.01;60.86;99821.31;7041373;28;20223;-89
2023/10/06 02:33:20;;;;;;;8.20;5.20;;;;;;;11.98;60.97;99814.41;7039166;28;20659;-88
2023/10/06 02:36:41;;;;;;;13.40;5.80;;;;;;;12.18;60.71;99810.09;7036938;28;20245;-86
2023/10/06 02:40:11;;;;;;;8.67;5.27;;;;;;;12.53;59.09;99805.66;7046856;28;20208;-91
2023/10/06 02:43:33;;;;;;;13.73;6.20;;;;;;;11.80;59.64;99751.84;7045165;28;20222;-89
2023/10/06 02:46:55;;;;;;;9.90;5.87;;;;;;;12.47;59.18;99799.19;7041011;28;20261;-91
2023/10/06 02:50:19;;;;;;;7.27;5.23;;;;;;;12.68;58.72;99806.44;7049275;28;20348;-90
2023/10/06 02:53:48;;;;;;;10.37;5.13;;;;;;;12.60;58.74;99795.75;7040655;28;20240;-89
2023/10/06 02:57:11;;;;;;;10.40;5.43;;;;;;;12.05;59.35;99752.34;7041852;28;20206;-91
2023/10/06 03:00:32;;;;;;;9.10;5.20;;;;;;;11.90;60.01;99792.06;7049649;28;20211;-91
2023/10/06 03:04:06;;;;;;;7.73;5.40;;;;;;;11.39;60.81;99747.94;7047446;28;20298;-90
2023/10/06 03:07:28;;;;;;;8.93;5.07;;;;;;;11.68;61.20;99806.56;7043202;28;20249;-90
2023/10/06 03:10:50;;;;;;;8.77;6.00;;;;;;;11.12;61.30;99683.00;7046196;28;20699;-90
2023/10/06 03:14:14;;;;;;;10.83;5.50;;;;;;;12.16;59.77;99790.50;7040902;28;20229;-91
2023/10/06 03:17:35;;;;;;;9.03;5.90;;;;;;;11.83;60.37;99815.47;7049084;28;20219;-91
2023/10/06 03:20:59;;;;;;;8.87;5.40;;;;;;;11.56;59.62;99737.81;7040513;28;20208;-91
2023/10/06 03:24:30;;;;;;;8.63;5.40;;;;;;;11.37;59.96;99704.13;7043116;27;20917;-90
2023/10/06 03:27:54;;;;;;;8.43;5.83;;;;;;;11.34;60.75;99753.06;7046669;28;20230;-90
2023/10/06 03:31:28;;;;;;;11.63;5.90;;;;;;;11.49;61.51;99796.28;7042731;28;20652;-91
2023/10/06 03:34:51;;;;;;;9.23;6.20;;;;;;;11.67;60.74;99813.81;7040055;28;20588;-90
2023/10/06 03:42:00;;;;;;;8.07;5.90;;;;;;;11.93;60.69;99816.03;7050442;28;20236;-90
2023/10/06 03:45:31;;;;;;;9.57;5.50;;;;;;;11.98;60.52;99816.28;7047392;28;20232;-90
2023/10/06 03:48:53;;;;;;;10.97;6.13;;;;;;;11.49;60.62;99785.47;7044963;28;20215;-90
2023/10/06 03:52:16;;;;;;;12.67;6.03;;;;;;;11.69;61.68;99797.44;7040761;28;20261;-89
2023/10/06 03:55:40;;;;;;;12.10;6.77;;;;;;;11.64;61.46;99795.25;7040317;28;20231;-90
2023/10/06 03:59:12;;;;;;;12.57;7.30;;;;;;;11.78;61.14;99797.13;7045067;28;20572;-89
2023/10/06 04:02:38;;;;;;;9.87;6.50;;;;;;;11.62;60.96;99791.09;7044429;28;20236;-89
2023/10/06 04:06:03;;;;;;;7.87;5.27;;;;;;;11.20;61.51;99762.03;7044798;28;20742;-89
2023/10/06 04:09:28;;;;;;;8.97;6.03;;;;;;;11.93;60.43;99783.59;7042653;28;20205;-90
2023/10/06 04:12:49;;;;;;;11.07;5.83;;;;;;;12.03;59.73;99781.44;7038335;27;20239;-90
2023/10/06 04:16:14;;;;;;;10.50;5.90;;;;;;;11.61;60.87;99787.56;7043450;27;20225;-88
2023/10/06 04:19:35;;;;;;;9.03;5.90;;;;;;;10.82;61.34;99684.88;7051951;28;20669;-89
2023/10/06 04:23:01;;;;;;;10.80;6.50;;;;;;;11.39;61.55;99774.13;7040236;28;20291;-90
2023/10/06 04:26:24;;;;;;;11.80;6.43;;;;;;;11.47;61.41;99774.88;7041354;28;20690;-89
2023/10/06 04:29:45;;;;;;;9.97;5.90;;;;;;;11.58;60.65;99776.25;7038795;28;20656;-89
2023/10/06 04:33:10;;;;;;;8.43;5.90;;;;;;;11.68;61.17;99777.66;7040318;28;20320;-90
2023/10/06 04:36:31;;;;;;;10.43;6.80;;;;;;;11.53;61.41;99787.63;7047945;28;20224;-90
2023/10/06 04:39:53;;;;;;;9.93;5.67;;;;;;;11.51;61.34;99772.63;7038401;28;20220;-89
2023/10/06 04:43:17;;;;;;;12.77;6.47;;;;;;;11.56;60.49;99762.13;7041424;28;20266;-90
2023/10/06 04:46:39;;;;;;;9.47;6.20;;;;;;;11.39;61.43;99779.53;7045204;28;20257;-90
2023/10/06 04:50:02;;;;;;;9.53;6.40;;;;;;;11.33;61.35;99785.69;7043914;28;20618;-91
2023/10/06 04:53:23;;;;;;;8.70;6.70;;;;;;;11.55;60.73;99782.00;7034780;28;20569;-89
2023/10/06 04:56:52;;;;;;;11.33;6.77;;;;;;;11.37;61.55;99777.00;7041464;28;20296;-91
2023/10/06 05:00:15;;;;;;;10.07;5.83;;;;;;;11.28;61.26;99772.72;7041358;28;20211;-92
2023/10/06 05:03:42;;;;;;;11.90;6.40;;;;;;;11.22;61.10;99772.63;7041536;28;20210;-92
2023/10/06 05:07:06;;;;;;;10.27;6.40;;;;;;;11.02;61.15;99731.88;7037424;28;20205;-91
2023/10/06 05:10:27;;;;;;;8.70;5.70;;;;;;;11.15;61.44;99780.63;7039210;28;20260;-91
2023/10/06 05:13:52;;;;;;;13.97;6.07;;;;;;;11.27;61.19;99764.81;7042066;28;20235;-91
2023/10/06 05:17:16;;;;;;;8.27;5.60;;;;;;;11.31;60.91;99785.84;7034967;28;20542;-91
2023/10/06 05:20:37;;;;;;;11.67;5.70;;;;;;;11.18;60.23;99745.19;7042174;28;20268;-92
2023/10/06 05:24:00;;;;;;;8.70;5.80;;;;;;;11.38;60.02;99734.63;7039114;28;20308;-94
2023/10/06 05:27:22;;;;;;;7.67;6.00;;;;;;;11.58;59.86;99757.34;7044361;28;20650;-93
2023/10/06 05:30:44;;;;;;;9.83;6.93;;;;;;;11.24;60.21;99787.63;7033333;28;20228;-93
2023/10/06 05:34:07;;;;;;;10.03;7.03;;;;;;;11.12;61.11;99783.72;7045127;28;20307;-93
2023/10/06 05:37:29;;;;;;;13.47;6.47;;;;;;;11.27;61.23;99784.53;7024623;28;20326;-91
2023/10/06 05:40:52;;;;;;;8.97;6.13;;;;;;;11.71;60.06;99776.44;7024292;28;20303;-93
2023/10/06 05:44:13;;;;;;;10.30;5.47;;;;;;;11.07;61.18;99767.22;7040222;28;20311;-93
2023/10/06 05:47:37;;;;;;;8.20;6.53;;;;;;;11.25;61.12;99791.16;7042248;28;20688;-91
2023/10/06 05:51:04;;;;;;;9.70;6.23;;;;;;;11.50;60.25;99808.75;7041368;28;20220;-91
2023/10/06 05:54:29;;;;;;;8.53;5.60;;;;;;;11.42;59.99;99811.53;7038630;28;20227;-91
2023/10/06 05:57:55;;;;;;;10.73;6.73;;;;;;;11.31;59.90;99810.16;7053123;28;20208;-93
2023/10/06 06:01:20;;;;;;;10.17;7.23;;;;;;;11.20;60.73;99829.50;7040017;28;20204;-93
2023/10/06 06:04:42;;;;;;;10.07;7.57;;;;;;;11.33;60.44;99834.28;7037525;28;20229;-92
2023/10/06 06:08:04;;;;;;;12.40;8.70;;;;;;;11.75;59.74;99848.81;7036492;28;20238;-93
2023/10/06 06:11:27;;;;;;;9.60;6.70;;;;;;;11.95;57.78;99797.75;7037974;28;20527;-93
2023/10/06 06:14:50;;;;;;;13.30;7.20;;;;;;;11.59;59.20;99835.53;7036103;28;20228;-93
2023/10/06 06:18:13;;;;;;;9.17;6.10;;;;;;;11.87;58.67;99833.00;7040066;28;20301;-90
2023/10/06 06:21:35;;;;;;;12.33;7.53;;;;;;;11.86;59.45;99839.44;7041005;28;20568;-93
2023/10/06 06:24:56;;;;;;;11.47;6.90;;;;;;;11.67;60.66;99832.72;7042977;28;20262;-91
2023/10/06 06:28:18;;;;;;;10.33;6.67;;;;;;;11.74;60.52;99832.81;7039605;28;20362;-89
2023/10/06 06:31:59;;;;;;;11.50;6.53;;;;;;;11.82;60.90;99832.72;7032427;28;20327;-90
2023/10/06 06:35:21;;;;;;;11.00;7.00;;;;;;;12.21;60.43;99836.72;7044521;28;20221;-90
2023/10/06 06:38:43;;;;;;;8.90;6.90;;;;;;;12.87;58.98;99827.44;7036572;28;20258;-90
2023/10/06 06:42:05;;;;;;;11.27;6.80;;;;;;;13.26;56.52;99809.66;7045391;28;20226;-90
2023/10/06 06:45:28;;;;;;;9.67;6.67;;;;;;;13.59;56.97;99834.25;7037766;28;20224;-87
2023/10/06 06:48:51;;;;;;;11.20;6.77;;;;;;;13.96;55.83;99820.25;7038728;28;20295;-87
2023/10/06 06:52:21;;;;;;;10.03;6.27;;;;;;;14.30;55.73;99826.50;7039442;28;20221;-91
2023/10/06 06:55:46;;;;;;;13.30;7.53;;;;;;;14.93;54.89;99811.56;7046901;28;20226;-89
2023/10/06 06:59:09;;;;;;;10.43;6.97;;;;;;;15.12;55.66;99800.72;7038523;28;20284;-86
2023/10/06 07:02:34;;;;;;;12.03;7.93;;;;;;;15.76;53.99;99820.66;7040574;28;20284;-87
2023/10/06 07:05:57;;;;;;;7.33;6.20;;;;;;;16.48;51.94;99818.53;7051446;28;20229;-89
2023/10/06 07:09:19;;;;;;;13.23;7.77;;;;;;;16.13;53.35;99790.00;7041475;28;20213;-89
2023/10/06 07:12:42;;;;;;;11.63;6.63;;;;;;;16.34;52.24;99800.53;7036870;28;20684;-87
2023/10/06 07:16:06;;;;;;;12.13;6.73;;;;;;;16.45;53.33;99812.69;7034060;28;20574;-89
2023/10/06 07:19:28;;;;;;;11.40;6.67;;;;;;;15.96;52.17;99696.34;7031235;28;20224;-89
2023/10/06 07:22:53;;;;;;;10.70;7.00;;;;;;;16.34;51.92;99800.53;7037498;28;20207;-84
2023/10/06 07:26:14;;;;;;;8.33;5.70;;;;;;;16.87;51.63;99795.63;7038696;28;20304;-88
2023/10/06 07:29:36;;;;;;;8.70;6.30;;;;;;;17.27;51.86;99802.44;7045301;28;20245;-88
2023/10/06 07:32:58;;;;;;;8.20;5.50;;;;;;;16.45;51.38;99684.75;7049805;28;20230;-86
2023/10/06 07:36:20;;;;;;;8.80;6.07;;;;;;;17.40;50.80;99815.97;7060473;28;20223;-86
2023/10/06 07:39:46;;;;;;;12.00;6.17;;;;;;;17.72;50.80;99812.06;7057754;28;20216;-85
2023/10/06 07:43:10;;;;;;;10.10;5.77;;;;;;;17.42;51.85;99822.88;7049775;28;20258;-83
2023/10/06 07:46:31;;;;;;;11.73;6.07;;;;;;;18.24;50.00;99805.97;7052255;27;20224;-86
2023/10/06 07:49:54;;;;;;;9.83;6.53;;;;;;;18.55;48.72;99813.97;7045646;28;20259;-86
2023/10/06 07:53:15;;;;;;;9.40;5.70;;;;;;;18.37;49.34;99806.66;7049371;28;20224;-85
2023/10/06 07:56:39;;;;;;;9.33;5.33;;;;;;;17.71;49.73;99721.22;7064892;27;20691;-88
2023/10/06 08:00:04;;;;;;;8.00;5.60;;;;;;;18.90;48.59;99798.50;7044494;28;20225;-85
2023/10/06 08:03:26;;;;;;;8.17;5.40;;;;;;;18.54;49.59;99810.41;7048621;28;20635;-86
2023/10/06 08:06:48;;;;;;;9.07;5.80;;;;;;;18.97;48.47;99805.53;7040011;28;20682;-85
2023/10/06 08:10:13;;;;;;;8.67;5.37;;;;;;;18.58;49.50;99806.13;7043875;28;20200;-86
2023/10/06 08:13:38;;;;;;;10.20;5.87;;;;;;;17.94;52.00;99805.94;7052445;28;20224;-89
2023/10/06 08:16:59;;;;;;;8.83;5.47;;;;;;;18.46;50.08;99736.19;7049647;28;20211;-87
2023/10/06 08:20:21;;;;;;;8.50;5.70;;;;;;;19.30;49.10;99774.94;7046157;28;20349;-88
2023/10/06 08:23:43;;;;;;;8.47;5.67;;;;;;;19.35;48.75;99795.03;7043614;28;20220;-89
2023/10/06 08:27:06;;;;;;;11.53;6.13;;;;;;;19.65;47.22;99776.59;7044996;28;20245;-88
2023/10/06 08:30:29;;;;;;;8.70;5.67;;;;;;;20.52;45.23;99717.88;7039382;28;20201;-88
2023/10/06 08:33:50;;;;;;;8.23;5.10;;;;;;;20.77;45.04;99775.88;7050338;28;20229;-88
2023/10/06 08:37:12;;;;;;;9.00;5.40;;;;;;;20.76;44.46;99716.66;7029453;28;20284;-89
2023/10/06 08:40:34;;;;;;;9.00;5.50;;;;;;;19.64;46.46;99678.34;7028390;28;20355;-89
2023/10/06 08:43:57;;;;;;;8.23;5.20;;;;;;;21.17;46.33;99780.16;7036440;28;20225;-90
2023/10/06 08:47:20;;;;;;;10.57;4.97;;;;;;;21.33;45.78;99719.81;7028932;28;20202;-87
2023/10/06 08:50:43;;;;;;;10.97;5.50;;;;;;;20.89;45.82;99779.41;7037774;28;20245;-87
2023/10/06 08:54:06;;;;;;;11.57;5.67;;;;;;;20.99;45.75;99783.16;7057867;28;20257;-87
2023/10/06 08:57:29;;;;;;;12.47;5.23;;;;;;;21.23;43.67;99776.41;7040517;28;20205;-85
2023/10/06 09:00:50;;;;;;;12.93;5.57;;;;;;;21.59;43.44;99792.38;7052568;28;20196;-87
2023/10/06 09:04:14;;;;;;;10.87;5.43;;;;;;;20.64;43.79;99702.19;7034034;28;20315;-88
2023/10/06 09:07:36;;;;;;;9.70;5.17;;;;;;;20.96;42.88;99706.88;7027825;28;20213;-88
2023/10/06 09:10:57;;;;;;;9.27;5.40;;;;;;;20.33;45.38;99768.50;7028381;28;20656;-87
2023/10/06 09:14:19;;;;;;;9.40;5.50;;;;;;;20.87;45.38;99784.28;7041731;28;20357;-87
2023/10/06 09:17:40;;;;;;;16.53;5.83;;;;;;;20.31;45.00;99699.41;7040955;28;20201;-88
2023/10/06 09:21:14;;;;;;;7.67;4.87;;;;;;;21.83;43.13;99772.69;7050153;28;20206;-87
2023/10/06 09:24:35;;;;;;;9.80;5.10;;;;;;;20.67;43.71;99660.59;7046854;28;20315;-87
2023/10/06 09:28:04;;;;;;;11.10;5.23;;;;;;;21.12;43.78;99776.53;7047546;28;20340;-88
2023/10/06 09:31:36;;;;;;;9.67;5.10;;;;;;;21.68;43.33;99763.44;7046819;28;20244;-87
2023/10/06 09:34:57;;;;;;;14.97;6.73;;;;;;;22.02;44.02;99776.78;7039426;28;20317;-88
2023/10/06 09:38:21;;;;;;;8.27;4.93;;;;;;;22.75;41.33;99755.13;7055490;28;20350;-85
2023/10/06 09:41:42;;;;;;;10.53;5.80;;;;;;;23.14;40.20;99762.06;7028716;28;20269;-84
2023/10/06 09:45:15;;;;;;;11.07;5.07;;;;;;;22.82;41.23;99766.72;7043316;28;20323;-86
2023/10/06 09:48:38;;;;;;;7.53;4.90;;;;;;;21.96;41.96;99749.53;7033992;28;20251;-85
2023/10/06 09:52:02;;;;;;;8.03;5.30;;;;;;;23.32;39.83;99749.84;7049682;28;20313;-88
2023/10/06 09:55:25;;;;;;;7.87;4.80;;;;;;;24.00;39.09;99742.28;7038016;28;20231;-88
2023/10/06 09:58:48;;;;;;;8.77;4.83;;;;;;;23.67;38.77;99731.63;7041721;28;20282;-88
2023/10/06 10:02:11;;;;;;;9.80;4.90;;;;;;;23.29;39.92;99742.94;7033647;28;20684;-89
2023/10/06 10:05:33;;;;;;;8.13;4.87;;;;;;;23.98;39.00;99724.38;7044073;28;20225;-88
2023/10/06 10:08:55;;;;;;;9.83;4.90;;;;;;;23.98;38.46;99664.59;7034229;28;20209;-89
2023/10/06 10:12:37;;;;;;;8.97;4.67;;;;;;;24.55;38.22;99709.34;7023705;28;20379;-89
2023/10/06 10:16:09;;;;;;;6.20;4.47;;;;;;;25.02;37.03;99721.00;7037036;28;20901;-89
2023/10/06 10:19:31;;;;;;;8.53;4.70;;;;;;;24.96;37.46;99722.09;7039233;28;20203;-89
2023/10/06 10:22:56;;;;;;;8.53;4.90;;;;;;;24.75;37.56;99697.56;7024558;28;20629;-90
2023/10/06 10:26:22;;;;;;;10.97;5.00;;;;;;;24.74;38.10;99721.56;7023909;28;20712;-87
2023/10/06 10:29:47;;;;;;;8.90;5.00;;;;;;;25.12;35.90;99693.41;7025406;28;20879;-86
2023/10/06 10:33:08;;;;;;;8.50;4.27;;;;;;;25.11;36.90;99697.28;7046261;28;20328;-90
2023/10/06 10:36:31;;;;;;;7.23;4.67;;;;;;;25.37;35.99;99707.19;7033555;28;20249;-89
2023/10/06 10:39:53;;;;;;;8.03;4.67;;;;;;;25.89;35.52;99715.88;7039301;28;20236;-87
2023/10/06 10:43:15;;;;;;;10.07;4.73;;;;;;;26.29;34.46;99693.59;7046310;28;20209;-88
2023/10/06 10:46:42;;;;;;;9.40;4.63;;;;;;;26.72;33.06;99684.47;7042108;28;20233;-86
2023/10/06 10:50:05;;;;;;;9.43;5.43;;;;;;;25.71;35.28;99679.78;7035363;28;20204;-90
2023/10/06 10:53:29;;;;;;;8.33;4.87;;;;;;;26.04;33.33;99601.69;7034696;28;20306;-90
2023/10/06 10:56:53;;;;;;;8.97;5.03;;;;;;;25.73;34.12;99572.56;7049397;28;20233;-90
2023/10/06 11:00:15;;;;;;;9.83;5.10;;;;;;;25.37;35.31;99678.78;7052165;28;20204;-85
2023/10/06 11:03:38;;;;;;;7.67;4.90;;;;;;;25.75;35.70;99661.50;7036796;28;20260;-87
2023/10/06 11:07:09;;;;;;;9.13;4.93;;;;;;;25.55;35.38;99647.78;7029171;28;20243;-87
2023/10/06 11:10:32;;;;;;;7.87;4.90;;;;;;;25.85;35.26;99665.06;7029487;28;20205;-88
2023/10/06 11:14:00;;;;;;;12.03;4.87;;;;;;;25.58;34.91;99659.09;7028651;28;20231;-88
2023/10/06 11:17:23;;;;;;;7.07;4.40;;;;;;;25.86;35.26;99644.63;7038013;28;20213;-86
2023/10/06 11:20:47;;;;;;;9.87;4.60;;;;;;;26.16;35.13;99641.72;7046311;28;20208;-89
2023/10/06 11:24:10;;;;;;;9.03;5.23;;;;;;;25.86;34.51;99597.63;7057881;28;20229;-88
2023/10/06 11:27:31;;;;;;;8.90;4.43;;;;;;;26.25;34.62;99617.84;7049089;28;20238;-88
2023/10/06 11:30:53;;;;;;;8.23;4.73;;;;;;;26.56;34.22;99615.72;7050689;28;20260;-86
2023/10/06 11:34:16;;;;;;;8.43;4.80;;;;;;;25.53;33.67;99507.19;7050118;28;20741;-85
2023/10/06 11:37:39;;;;;;;7.97;4.37;;;;;;;27.09;32.65;99623.00;7052074;28;20338;-83
2023/10/06 11:41:00;;;;;;;9.30;4.53;;;;;;;27.09;32.50;99606.38;7031405;28;20652;-86
2023/10/06 11:44:22;;;;;;;6.50;4.33;;;;;;;25.79;34.43;99612.88;7032548;28;20300;-87
2023/10/06 11:47:44;;;;;;;7.07;4.43;;;;;;;26.56;33.79;99596.38;7032019;28;20274;-87
2023/10/06 11:51:07;;;;;;;9.53;4.57;;;;;;;27.53;32.12;99599.53;7031191;28;20241;-87
2023/10/06 11:54:32;;;;;;;7.03;4.30;;;;;;;27.25;32.11;99597.63;7030941;28;20233;-86
2023/10/06 11:57:54;;;;;;;6.70;4.17;;;;;;;27.08;32.08;99604.72;7050259;28;20205;-86
2023/10/06 12:01:31;;;;;;;6.97;4.03;;;;;;;27.41;32.24;99601.03;7044181;28;20209;-86
2023/10/06 12:04:54;;;;;;;6.33;3.93;;;;;;;26.60;33.25;99594.69;7046403;28;20220;-86
2023/10/06 12:08:16;;;;;;;8.40;4.53;;;;;;;26.82;32.83;99592.25;7043424;28;20319;-86
2023/10/06 12:11:39;;;;;;;8.07;4.40;;;;;;;26.03;33.29;99536.47;7038580;28;20211;-87
2023/10/06 12:15:01;;;;;;;6.10;4.60;;;;;;;27.01;33.07;99599.53;7044964;28;20328;-87
2023/10/06 12:18:25;;;;;;;8.80;4.53;;;;;;;26.32;33.45;99581.59;7055000;28;20249;-86
2023/10/06 12:21:46;;;;;;;8.47;4.33;;;;;;;26.79;31.53;99607.50;7034939;27;20208;-88
2023/10/06 12:25:10;;;;;;;7.03;4.90;;;;;;;26.02;32.93;99596.44;7040039;28;20217;-86
2023/10/06 12:28:32;;;;;;;9.33;4.67;;;;;;;26.06;32.86;99588.41;7030327;28;20198;-83
2023/10/06 12:31:56;;;;;;;9.27;5.17;;;;;;;25.71;31.81;99583.88;7027590;28;20253;-86
2023/10/06 12:35:19;;;;;;;6.93;4.80;;;;;;;26.55;30.10;99580.88;7039559;28;20231;-87
2023/10/06 12:38:40;;;;;;;8.40;5.20;;;;;;;26.51;31.07;99580.63;7051248;28;20197;-86
2023/10/06 12:42:03;;;;;;;9.77;5.40;;;;;;;26.19;31.69;99585.03;7048843;28;20224;-85
2023/10/06 12:45:29;;;;;;;9.33;5.30;;;;;;;26.16;31.13;99571.75;7042500;28;20228;-83
2023/10/06 12:48:50;;;;;;;7.60;5.37;;;;;;;25.45;31.20;99556.69;7036024;27;20666;-89
2023/10/06 12:52:12;;;;;;;8.37;5.20;;;;;;;25.78;30.64;99565.06;7044951;27;20681;-83
2023/10/06 12:55:33;;;;;;;9.53;5.10;;;;;;;26.64;29.89;99563.38;7040901;28;20225;-82
2023/10/06 12:58:55;;;;;;;8.07;5.37;;;;;;;26.78;29.23;99561.56;7045780;28;20232;-82
2023/10/06 13:02:24;;;;;;;9.03;4.60;;;;;;;27.68;28.18;99555.00;7042380;28;20725;-83
2023/10/06 13:05:47;;;;;;;8.43;5.07;;;;;;;26.06;30.26;99558.00;7040613;28;20228;-82
2023/10/06 13:09:09;;;;;;;9.80;5.10;;;;;;;24.83;31.01;99455.06;7046458;28;20253;-85
2023/10/06 13:12:31;;;;;;;8.97;5.13;;;;;;;26.02;30.94;99556.94;7042298;28;20254;-83
2023/10/06 13:15:52;;;;;;;10.60;5.47;;;;;;;26.15;30.72;99537.78;7046222;28;20268;-82
2023/10/06 13:19:15;;;;;;;7.50;5.10;;;;;;;26.67;30.24;99548.94;7040145;28;20198;-82
2023/10/06 13:22:37;;;;;;;9.50;5.13;;;;;;;25.68;30.96;99509.06;7039945;28;20785;-83
2023/10/06 13:25:59;;;;;;;7.67;4.50;;;;;;;26.84;30.51;99554.06;7044080;28;20323;-85
2023/10/06 13:29:23;;;;;;;7.43;5.10;;;;;;;26.53;30.55;99547.09;7036822;28;20250;-84
2023/10/06 13:32:48;;;;;;;8.00;5.13;;;;;;;26.56;31.27;99544.66;7040532;28;20253;-81
2023/10/06 13:36:11;;;;;;;9.23;5.07;;;;;;;26.65;31.39;99545.66;7047714;28;20235;-86
2023/10/06 13:39:33;;;;;;;8.60;5.10;;;;;;;26.38;31.37;99545.31;7048904;28;20238;-85
2023/10/06 13:42:54;;;;;;;10.00;5.57;;;;;;;26.11;31.40;99516.50;7038744;28;20211;-83
2023/10/06 13:46:17;;;;;;;8.13;4.90;;;;;;;26.12;31.77;99513.47;7044519;28;20260;-84
2023/10/06 13:49:40;;;;;;;8.50;5.47;;;;;;;26.38;31.73;99539.78;7045217;28;20215;-84
2023/10/06 13:53:04;;;;;;;8.00;5.47;;;;;;;26.51;30.99;99525.28;7047835;28;20230;-84
2023/10/06 13:56:27;;;;;;;10.57;5.70;;;;;;;26.38;31.83;99536.19;7047934;28;20220;-83
2023/10/06 13:59:48;;;;;;;8.97;5.00;;;;;;;26.25;31.55;99521.09;7042967;28;20208;-84
2023/10/06 14:03:13;;;;;;;9.20;5.50;;;;;;;26.74;31.19;99504.34;7039470;28;20246;-85
2023/10/06 14:06:34;;;;;;;9.57;6.03;;;;;;;26.39;31.78;99516.56;7046094;28;20231;-84
2023/10/06 14:09:57;;;;;;;8.63;5.33;;;;;;;26.00;32.37;99501.09;7042266;28;20344;-84
2023/10/06 14:13:23;;;;;;;7.80;5.10;;;;;;;26.40;31.54;99509.06;7053611;28;20278;-84
2023/10/06 14:16:46;;;;;;;10.70;5.23;;;;;;;26.04;31.65;99503.03;7042807;28;20685;-84
2023/10/06 14:20:23;;;;;;;6.97;4.73;;;;;;;26.23;32.09;99500.38;7042411;28;20278;-85
2023/10/06 14:23:47;;;;;;;7.23;5.13;;;;;;;26.18;32.25;99481.88;7048823;28;20220;-84
2023/10/06 14:27:11;;;;;;;9.63;5.00;;;;;;;26.40;32.31;99498.84;7038999;28;20575;-83
2023/10/06 14:30:34;;;;;;;8.87;5.67;;;;;;;26.26;32.26;99506.13;7044637;28;20554;-83
2023/10/06 14:34:33;;;;;;;7.77;5.03;;;;;;;25.85;32.73;99502.03;7047740;28;20238;-84
2023/10/06 14:37:42;;;;;;;11.30;5.30;;;;;;;24.95;33.94;99479.59;7038903;28;20350;-83
2023/10/06 14:48:27;;;;;;;9.70;5.17;;;;;;;25.82;33.31;99463.91;7007032;28;20205;-83
2023/10/06 14:51:48;;;;;;;8.57;4.93;;;;;;;25.07;34.27;99488.38;7030728;28;20215;-84
2023/10/06 14:55:10;;;;;;;9.97;5.33;;;;;;;25.20;34.38;99493.25;7033436;28;20314;-82
2023/10/06 14:58:32;;;;;;;11.03;5.00;;;;;;;25.32;34.61;99491.84;7052613;28;20212;-84
2023/10/06 15:01:55;;;;;;;10.67;5.70;;;;;;;25.51;34.10;99486.50;7057087;28;20216;-83
2023/10/06 15:05:16;;;;;;;10.77;5.10;;;;;;;24.95;34.78;99435.44;7059732;28;20267;-84
2023/10/06 15:08:38;;;;;;;8.97;5.67;;;;;;;25.48;34.73;99509.97;7041673;28;20574;-85
2023/10/06 15:12:02;;;;;;;10.07;5.87;;;;;;;25.29;34.85;99492.44;7057979;28;20219;-85
2023/10/06 15:15:24;;;;;;;11.73;5.30;;;;;;;25.13;34.93;99496.31;7047725;28;20633;-83
2023/10/06 15:18:48;;;;;;;8.17;5.37;;;;;;;25.00;35.24;99504.38;7057153;28;20231;-84
2023/10/06 15:22:09;;;;;;;8.20;4.63;;;;;;;25.26;35.23;99481.94;7034880;28;20212;-83
2023/10/06 15:25:31;;;;;;;9.73;5.40;;;;;;;25.20;35.51;99496.84;7048855;28;20220;-84
2023/10/06 15:28:53;;;;;;;8.53;5.13;;;;;;;25.41;34.95;99492.91;7040634;28;20271;-82
2023/10/06 15:32:15;;;;;;;12.23;5.90;;;;;;;25.06;35.33;99494.97;7049902;28;20649;-84
2023/10/06 15:35:38;;;;;;;8.53;5.53;;;;;;;25.31;34.96;99484.66;7041390;28;20253;-83
2023/10/06 15:39:02;;;;;;;7.57;5.40;;;;;;;25.23;35.24;99465.06;7036982;28;20697;-79
2023/10/06 15:42:24;;;;;;;9.27;5.20;;;;;;;25.34;35.21;99475.84;7041710;28;20305;-83
2023/10/06 15:45:56;;;;;;;8.93;5.73;;;;;;;25.33;35.25;99492.69;7037808;28;20685;-83
2023/10/06 15:49:18;;;;;;;7.93;5.40;;;;;;;24.95;35.96;99496.94;7045310;28;20203;-84
2023/10/06 15:52:41;;;;;;;8.60;5.13;;;;;;;24.58;36.10;99462.56;7054637;28;20623;-83
2023/10/06 15:56:03;;;;;;;11.03;4.93;;;;;;;24.67;36.15;99492.06;7047823;28;20619;-83
2023/10/06 15:59:27;;;;;;;7.97;5.10;;;;;;;24.39;37.03;99476.13;7056280;28;20236;-82
2023/10/06 16:02:50;;;;;;;9.07;5.07;;;;;;;24.38;37.44;99485.50;7048640;28;20554;-83
2023/10/06 16:06:12;;;;;;;10.13;5.77;;;;;;;24.44;36.34;99498.16;7043142;28;20697;-84
2023/10/06 16:09:35;;;;;;;8.43;5.63;;;;;;;24.20;37.24;99501.75;7049216;28;20269;-83